sensor_id;sensor_type;location;lat;lon;timestamp;P1;durP1;ratioP1;P2;durP2;ratioP2
30970;SDS011;17651;52.262;10.498;2023-03-01T00:00:34;48.55;;;21.73;;
30970;SDS011;17651;52.262;10.498;2023-03-01T00:02:45;58.38;;;25.38;;
30970;SDS011;17651;52.262;10.498;2023-03-01T00:04:56;47.25;;;20.70;;
30970;SDS011;17651;52.262;10.498;2023-03-01T00:07:07;47.33;;;20.58;;
30970;SDS011;17651;52.262;10.498;2023-03-01T00:09:18;44.67;;;19.38;;
30970;SDS011;17651;52.262;10.498;2023-03-01T00:11:30;58.13;;;23.73;;
30970;SDS011;17651;52.262;10.498;2023-03-01T00:13:42;55.70;;;24.35;;
30970;SDS011;17651;52.262;10.498;2023-03-01T00:15:54;54.85;;;24.00;;
30970;SDS011;17651;52.262;10.498;2023-03-01T00:18:05;52.15;;;23.73;;
30970;SDS011;17651;52.262;10.498;2023-03-01T00:20:16;39.78;;;18.17;;
30970;SDS011;17651;52.262;10.498;2023-03-01T00:22:27;38.08;;;18.33;;
30970;SDS011;17651;52.262;10.498;2023-03-01T00:24:38;38.05;;;19.40;;
30970;SDS011;17651;52.262;10.498;2023-03-01T00:26:52;33.13;;;16.67;;
30970;SDS011;17651;52.262;10.498;2023-03-01T00:29:05;24.02;;;13.93;;
30970;SDS011;17651;52.262;10.498;2023-03-01T00:31:17;35.10;;;16.90;;
30970;SDS011;17651;52.262;10.498;2023-03-01T00:33:29;32.17;;;14.55;;
30970;SDS011;17651;52.262;10.498;2023-03-01T00:35:40;36.95;;;17.55;;
30970;SDS011;17651;52.262;10.498;2023-03-01T00:37:51;37.53;;;17.27;;
30970;SDS011;17651;52.262;10.498;2023-03-01T00:40:07;41.55;;;17.33;;
30970;SDS011;17651;52.262;10.498;2023-03-01T00:42:20;37.75;;;17.13;;
30970;SDS011;17651;52.262;10.498;2023-03-01T00:44:32;30.67;;;15.30;;
30970;SDS011;17651;52.262;10.498;2023-03-01T00:46:44;31.48;;;14.50;;
30970;SDS011;17651;52.262;10.498;2023-03-01T00:48:55;24.20;;;14.52;;
30970;SDS011;17651;52.262;10.498;2023-03-01T00:53:18;22.42;;;12.27;;
30970;SDS011;17651;52.262;10.498;2023-03-01T00:55:29;20.63;;;11.45;;
30970;SDS011;17651;52.262;10.498;2023-03-01T00:57:40;18.88;;;11.43;;
30970;SDS011;17651;52.262;10.498;2023-03-01T00:59:52;18.20;;;11.07;;
30970;SDS011;17651;52.262;10.498;2023-03-01T01:02:03;16.83;;;11.60;;
30970;SDS011;17651;52.262;10.498;2023-03-01T01:04:14;19.52;;;12.05;;
30970;SDS011;17651;52.262;10.498;2023-03-01T01:06:26;19.83;;;11.35;;
30970;SDS011;17651;52.262;10.498;2023-03-01T01:08:37;16.92;;;11.02;;
30970;SDS011;17651;52.262;10.498;2023-03-01T01:10:49;21.15;;;11.73;;
30970;SDS011;17651;52.262;10.498;2023-03-01T01:13:00;18.85;;;11.85;;
30970;SDS011;17651;52.262;10.498;2023-03-01T01:15:11;21.77;;;12.13;;
30970;SDS011;17651;52.262;10.498;2023-03-01T01:17:24;21.95;;;12.18;;
30970;SDS011;17651;52.262;10.498;2023-03-01T01:19:35;26.50;;;13.20;;
30970;SDS011;17651;52.262;10.498;2023-03-01T01:21:47;21.77;;;12.32;;
30970;SDS011;17651;52.262;10.498;2023-03-01T01:23:58;19.52;;;11.40;;
30970;SDS011;17651;52.262;10.498;2023-03-01T01:26:10;20.17;;;11.05;;
30970;SDS011;17651;52.262;10.498;2023-03-01T01:28:22;23.70;;;13.27;;
30970;SDS011;17651;52.262;10.498;2023-03-01T01:30:33;30.60;;;16.35;;
30970;SDS011;17651;52.262;10.498;2023-03-01T01:32:44;35.53;;;17.10;;
30970;SDS011;17651;52.262;10.498;2023-03-01T01:34:55;33.17;;;17.35;;
30970;SDS011;17651;52.262;10.498;2023-03-01T01:37:06;33.63;;;17.23;;
30970;SDS011;17651;52.262;10.498;2023-03-01T01:39:17;31.65;;;17.08;;
30970;SDS011;17651;52.262;10.498;2023-03-01T01:41:29;38.00;;;16.65;;
30970;SDS011;17651;52.262;10.498;2023-03-01T01:43:41;28.05;;;15.68;;
30970;SDS011;17651;52.262;10.498;2023-03-01T01:45:55;32.30;;;16.02;;
30970;SDS011;17651;52.262;10.498;2023-03-01T01:48:07;28.90;;;16.20;;
30970;SDS011;17651;52.262;10.498;2023-03-01T01:50:21;34.95;;;16.63;;
30970;SDS011;17651;52.262;10.498;2023-03-01T01:52:34;25.85;;;15.73;;
30970;SDS011;17651;52.262;10.498;2023-03-01T01:55:05;24.42;;;13.85;;
30970;SDS011;17651;52.262;10.498;2023-03-01T01:57:19;25.05;;;13.95;;
30970;SDS011;17651;52.262;10.498;2023-03-01T01:59:31;21.55;;;12.35;;
30970;SDS011;17651;52.262;10.498;2023-03-01T02:01:43;21.40;;;12.25;;
30970;SDS011;17651;52.262;10.498;2023-03-01T02:03:54;20.00;;;11.50;;
30970;SDS011;17651;52.262;10.498;2023-03-01T02:08:17;17.05;;;10.40;;
30970;SDS011;17651;52.262;10.498;2023-03-01T02:10:29;18.48;;;11.32;;
30970;SDS011;17651;52.262;10.498;2023-03-01T02:12:43;16.50;;;10.85;;
30970;SDS011;17651;52.262;10.498;2023-03-01T02:14:54;15.75;;;10.20;;
30970;SDS011;17651;52.262;10.498;2023-03-01T02:17:05;17.23;;;10.32;;
30970;SDS011;17651;52.262;10.498;2023-03-01T02:19:21;15.80;;;10.43;;
30970;SDS011;17651;52.262;10.498;2023-03-01T02:23:54;14.77;;;10.38;;
30970;SDS011;17651;52.262;10.498;2023-03-01T02:28:22;17.75;;;10.43;;
30970;SDS011;17651;52.262;10.498;2023-03-01T02:30:35;15.48;;;10.50;;
30970;SDS011;17651;52.262;10.498;2023-03-01T02:32:47;17.55;;;11.05;;
30970;SDS011;17651;52.262;10.498;2023-03-01T02:34:59;20.50;;;11.15;;
30970;SDS011;17651;52.262;10.498;2023-03-01T02:37:12;17.08;;;10.98;;
30970;SDS011;17651;52.262;10.498;2023-03-01T02:39:28;17.10;;;12.18;;
30970;SDS011;17651;52.262;10.498;2023-03-01T02:41:44;21.25;;;10.98;;
30970;SDS011;17651;52.262;10.498;2023-03-01T02:43:57;16.33;;;10.60;;
30970;SDS011;17651;52.262;10.498;2023-03-01T02:46:19;17.85;;;11.20;;
30970;SDS011;17651;52.262;10.498;2023-03-01T02:48:40;20.27;;;11.23;;
30970;SDS011;17651;52.262;10.498;2023-03-01T02:53:16;16.83;;;10.90;;
30970;SDS011;17651;52.262;10.498;2023-03-01T02:55:28;19.15;;;11.98;;
30970;SDS011;17651;52.262;10.498;2023-03-01T02:57:41;15.82;;;10.55;;
30970;SDS011;17651;52.262;10.498;2023-03-01T02:59:54;18.67;;;10.43;;
30970;SDS011;17651;52.262;10.498;2023-03-01T03:02:06;18.60;;;11.60;;
30970;SDS011;17651;52.262;10.498;2023-03-01T03:04:18;19.65;;;10.90;;
30970;SDS011;17651;52.262;10.498;2023-03-01T03:06:32;19.98;;;11.85;;
30970;SDS011;17651;52.262;10.498;2023-03-01T03:08:43;17.58;;;11.20;;
30970;SDS011;17651;52.262;10.498;2023-03-01T03:10:54;15.80;;;10.93;;
30970;SDS011;17651;52.262;10.498;2023-03-01T03:13:07;16.95;;;11.07;;
30970;SDS011;17651;52.262;10.498;2023-03-01T03:15:19;16.80;;;11.15;;
30970;SDS011;17651;52.262;10.498;2023-03-01T03:17:30;14.68;;;9.98;;
30970;SDS011;17651;52.262;10.498;2023-03-01T03:19:41;17.30;;;11.15;;
30970;SDS011;17651;52.262;10.498;2023-03-01T03:21:55;14.43;;;10.27;;
30970;SDS011;17651;52.262;10.498;2023-03-01T03:24:06;17.38;;;11.50;;
30970;SDS011;17651;52.262;10.498;2023-03-01T03:26:17;17.70;;;10.05;;
30970;SDS011;17651;52.262;10.498;2023-03-01T03:28:28;17.63;;;10.68;;
30970;SDS011;17651;52.262;10.498;2023-03-01T03:30:41;17.17;;;10.70;;
30970;SDS011;17651;52.262;10.498;2023-03-01T03:32:52;17.80;;;10.00;;
30970;SDS011;17651;52.262;10.498;2023-03-01T03:35:03;16.25;;;10.20;;
30970;SDS011;17651;52.262;10.498;2023-03-01T03:37:19;16.95;;;10.20;;
30970;SDS011;17651;52.262;10.498;2023-03-01T03:39:49;18.23;;;11.32;;
30970;SDS011;17651;52.262;10.498;2023-03-01T03:42:00;17.92;;;10.68;;
30970;SDS011;17651;52.262;10.498;2023-03-01T03:44:11;15.00;;;10.57;;
30970;SDS011;17651;52.262;10.498;2023-03-01T03:46:22;16.92;;;10.88;;
30970;SDS011;17651;52.262;10.498;2023-03-01T03:48:34;18.27;;;10.70;;
30970;SDS011;17651;52.262;10.498;2023-03-01T03:50:49;20.95;;;11.68;;
30970;SDS011;17651;52.262;10.498;2023-03-01T03:53:00;17.65;;;10.50;;
30970;SDS011;17651;52.262;10.498;2023-03-01T03:55:12;23.02;;;11.48;;
30970;SDS011;17651;52.262;10.498;2023-03-01T03:57:23;18.55;;;11.10;;
30970;SDS011;17651;52.262;10.498;2023-03-01T03:59:34;15.85;;;10.38;;
30970;SDS011;17651;52.262;10.498;2023-03-01T04:01:45;14.93;;;10.40;;
30970;SDS011;17651;52.262;10.498;2023-03-01T04:03:56;19.70;;;12.57;;
30970;SDS011;17651;52.262;10.498;2023-03-01T04:06:14;19.23;;;11.38;;
30970;SDS011;17651;52.262;10.498;2023-03-01T04:08:25;14.85;;;9.60;;
30970;SDS011;17651;52.262;10.498;2023-03-01T04:10:41;17.92;;;11.07;;
30970;SDS011;17651;52.262;10.498;2023-03-01T04:12:52;16.35;;;11.10;;
30970;SDS011;17651;52.262;10.498;2023-03-01T04:15:06;16.92;;;11.15;;
30970;SDS011;17651;52.262;10.498;2023-03-01T04:17:23;23.60;;;11.85;;
30970;SDS011;17651;52.262;10.498;2023-03-01T04:19:35;18.73;;;11.93;;
30970;SDS011;17651;52.262;10.498;2023-03-01T04:21:46;17.00;;;11.02;;
30970;SDS011;17651;52.262;10.498;2023-03-01T04:23:57;18.17;;;11.20;;
30970;SDS011;17651;52.262;10.498;2023-03-01T04:26:08;16.30;;;11.52;;
30970;SDS011;17651;52.262;10.498;2023-03-01T04:28:20;18.35;;;11.90;;
30970;SDS011;17651;52.262;10.498;2023-03-01T04:30:31;19.55;;;11.05;;
30970;SDS011;17651;52.262;10.498;2023-03-01T04:32:45;19.15;;;10.88;;
30970;SDS011;17651;52.262;10.498;2023-03-01T04:34:56;15.88;;;11.45;;
30970;SDS011;17651;52.262;10.498;2023-03-01T04:37:08;16.48;;;11.07;;
30970;SDS011;17651;52.262;10.498;2023-03-01T04:39:19;14.95;;;10.20;;
30970;SDS011;17651;52.262;10.498;2023-03-01T04:41:30;19.15;;;11.43;;
30970;SDS011;17651;52.262;10.498;2023-03-01T04:43:41;14.48;;;10.45;;
30970;SDS011;17651;52.262;10.498;2023-03-01T04:45:52;15.18;;;10.25;;
30970;SDS011;17651;52.262;10.498;2023-03-01T04:48:03;18.13;;;10.75;;
30970;SDS011;17651;52.262;10.498;2023-03-01T04:50:15;18.38;;;11.45;;
30970;SDS011;17651;52.262;10.498;2023-03-01T04:52:27;16.45;;;11.00;;
30970;SDS011;17651;52.262;10.498;2023-03-01T04:54:38;17.10;;;11.10;;
30970;SDS011;17651;52.262;10.498;2023-03-01T04:56:49;16.55;;;11.77;;
30970;SDS011;17651;52.262;10.498;2023-03-01T04:59:00;15.70;;;11.52;;
30970;SDS011;17651;52.262;10.498;2023-03-01T05:01:17;20.85;;;11.88;;
30970;SDS011;17651;52.262;10.498;2023-03-01T05:03:30;17.17;;;10.93;;
30970;SDS011;17651;52.262;10.498;2023-03-01T05:05:41;17.75;;;10.45;;
30970;SDS011;17651;52.262;10.498;2023-03-01T05:07:55;18.60;;;11.43;;
30970;SDS011;17651;52.262;10.498;2023-03-01T05:10:06;17.45;;;11.85;;
30970;SDS011;17651;52.262;10.498;2023-03-01T05:12:17;21.63;;;12.85;;
30970;SDS011;17651;52.262;10.498;2023-03-01T05:14:28;19.88;;;12.45;;
30970;SDS011;17651;52.262;10.498;2023-03-01T05:16:40;19.00;;;11.65;;
30970;SDS011;17651;52.262;10.498;2023-03-01T05:18:51;20.13;;;11.73;;
30970;SDS011;17651;52.262;10.498;2023-03-01T05:21:06;20.80;;;11.30;;
30970;SDS011;17651;52.262;10.498;2023-03-01T05:23:17;16.25;;;10.98;;
30970;SDS011;17651;52.262;10.498;2023-03-01T05:25:28;22.30;;;10.65;;
30970;SDS011;17651;52.262;10.498;2023-03-01T05:27:42;20.08;;;11.55;;
30970;SDS011;17651;52.262;10.498;2023-03-01T05:29:54;20.20;;;11.68;;
30970;SDS011;17651;52.262;10.498;2023-03-01T05:32:05;20.90;;;11.57;;
30970;SDS011;17651;52.262;10.498;2023-03-01T05:34:16;18.98;;;12.25;;
30970;SDS011;17651;52.262;10.498;2023-03-01T05:36:27;19.17;;;11.73;;
30970;SDS011;17651;52.262;10.498;2023-03-01T05:38:38;17.52;;;12.05;;
30970;SDS011;17651;52.262;10.498;2023-03-01T05:40:49;19.98;;;12.88;;
30970;SDS011;17651;52.262;10.498;2023-03-01T05:43:00;18.52;;;12.65;;
30970;SDS011;17651;52.262;10.498;2023-03-01T05:45:15;24.70;;;14.30;;
30970;SDS011;17651;52.262;10.498;2023-03-01T05:47:26;24.63;;;13.93;;
30970;SDS011;17651;52.262;10.498;2023-03-01T05:49:37;25.70;;;14.52;;
30970;SDS011;17651;52.262;10.498;2023-03-01T05:51:49;24.10;;;14.40;;
30970;SDS011;17651;52.262;10.498;2023-03-01T05:54:01;24.20;;;14.13;;
30970;SDS011;17651;52.262;10.498;2023-03-01T05:56:12;21.65;;;13.00;;
30970;SDS011;17651;52.262;10.498;2023-03-01T05:58:23;23.30;;;12.90;;
30970;SDS011;17651;52.262;10.498;2023-03-01T06:00:34;23.60;;;14.30;;
30970;SDS011;17651;52.262;10.498;2023-03-01T06:02:46;24.48;;;14.43;;
30970;SDS011;17651;52.262;10.498;2023-03-01T06:04:57;25.15;;;14.55;;
30970;SDS011;17651;52.262;10.498;2023-03-01T06:07:08;23.30;;;14.43;;
30970;SDS011;17651;52.262;10.498;2023-03-01T06:09:19;25.60;;;13.52;;
30970;SDS011;17651;52.262;10.498;2023-03-01T06:11:30;22.65;;;13.70;;
30970;SDS011;17651;52.262;10.498;2023-03-01T06:13:42;25.67;;;13.02;;
30970;SDS011;17651;52.262;10.498;2023-03-01T06:15:54;21.45;;;12.40;;
30970;SDS011;17651;52.262;10.498;2023-03-01T06:18:05;23.23;;;12.35;;
30970;SDS011;17651;52.262;10.498;2023-03-01T06:20:17;22.95;;;13.50;;
30970;SDS011;17651;52.262;10.498;2023-03-01T06:22:29;26.27;;;13.93;;
30970;SDS011;17651;52.262;10.498;2023-03-01T06:24:40;21.77;;;13.52;;
30970;SDS011;17651;52.262;10.498;2023-03-01T06:26:52;21.17;;;13.07;;
30970;SDS011;17651;52.262;10.498;2023-03-01T06:29:03;23.90;;;13.65;;
30970;SDS011;17651;52.262;10.498;2023-03-01T06:31:14;23.05;;;13.70;;
30970;SDS011;17651;52.262;10.498;2023-03-01T06:33:25;20.58;;;12.13;;
30970;SDS011;17651;52.262;10.498;2023-03-01T06:35:36;29.50;;;14.55;;
30970;SDS011;17651;52.262;10.498;2023-03-01T06:37:48;23.35;;;13.52;;
30970;SDS011;17651;52.262;10.498;2023-03-01T06:39:59;22.33;;;13.43;;
30970;SDS011;17651;52.262;10.498;2023-03-01T06:42:14;21.50;;;12.68;;
30970;SDS011;17651;52.262;10.498;2023-03-01T06:44:25;20.35;;;12.32;;
30970;SDS011;17651;52.262;10.498;2023-03-01T06:46:36;21.38;;;13.45;;
30970;SDS011;17651;52.262;10.498;2023-03-01T06:48:48;21.70;;;12.70;;
30970;SDS011;17651;52.262;10.498;2023-03-01T06:50:59;25.60;;;14.73;;
30970;SDS011;17651;52.262;10.498;2023-03-01T06:53:10;23.40;;;13.48;;
30970;SDS011;17651;52.262;10.498;2023-03-01T06:55:21;24.23;;;12.50;;
30970;SDS011;17651;52.262;10.498;2023-03-01T06:57:33;29.70;;;16.95;;
30970;SDS011;17651;52.262;10.498;2023-03-01T06:59:44;36.10;;;18.85;;
30970;SDS011;17651;52.262;10.498;2023-03-01T07:01:55;28.85;;;17.08;;
30970;SDS011;17651;52.262;10.498;2023-03-01T07:04:06;26.20;;;15.35;;
30970;SDS011;17651;52.262;10.498;2023-03-01T07:06:17;26.65;;;14.68;;
30970;SDS011;17651;52.262;10.498;2023-03-01T07:08:28;31.83;;;16.05;;
30970;SDS011;17651;52.262;10.498;2023-03-01T07:10:39;26.58;;;15.38;;
30970;SDS011;17651;52.262;10.498;2023-03-01T07:12:53;27.45;;;17.15;;
30970;SDS011;17651;52.262;10.498;2023-03-01T07:15:05;24.70;;;15.05;;
30970;SDS011;17651;52.262;10.498;2023-03-01T07:17:16;20.83;;;14.05;;
30970;SDS011;17651;52.262;10.498;2023-03-01T07:19:27;23.92;;;14.70;;
30970;SDS011;17651;52.262;10.498;2023-03-01T07:21:38;25.55;;;14.30;;
30970;SDS011;17651;52.262;10.498;2023-03-01T07:23:49;23.58;;;13.63;;
30970;SDS011;17651;52.262;10.498;2023-03-01T07:26:00;25.90;;;13.85;;
30970;SDS011;17651;52.262;10.498;2023-03-01T07:28:11;25.27;;;14.40;;
30970;SDS011;17651;52.262;10.498;2023-03-01T07:30:22;25.58;;;14.45;;
30970;SDS011;17651;52.262;10.498;2023-03-01T07:32:35;27.30;;;14.38;;
30970;SDS011;17651;52.262;10.498;2023-03-01T07:34:47;22.55;;;14.90;;
30970;SDS011;17651;52.262;10.498;2023-03-01T07:36:58;23.08;;;14.60;;
30970;SDS011;17651;52.262;10.498;2023-03-01T07:39:09;21.63;;;13.65;;
30970;SDS011;17651;52.262;10.498;2023-03-01T07:41:21;22.38;;;13.15;;
30970;SDS011;17651;52.262;10.498;2023-03-01T07:43:32;25.77;;;14.07;;
30970;SDS011;17651;52.262;10.498;2023-03-01T07:45:44;32.13;;;15.63;;
30970;SDS011;17651;52.262;10.498;2023-03-01T07:47:55;25.20;;;14.93;;
30970;SDS011;17651;52.262;10.498;2023-03-01T07:50:06;23.92;;;14.45;;
30970;SDS011;17651;52.262;10.498;2023-03-01T07:52:17;26.33;;;14.15;;
30970;SDS011;17651;52.262;10.498;2023-03-01T07:54:29;27.75;;;15.38;;
30970;SDS011;17651;52.262;10.498;2023-03-01T07:56:40;26.38;;;15.10;;
30970;SDS011;17651;52.262;10.498;2023-03-01T07:58:51;21.27;;;13.38;;
30970;SDS011;17651;52.262;10.498;2023-03-01T08:01:03;24.02;;;14.52;;
30970;SDS011;17651;52.262;10.498;2023-03-01T08:03:14;26.67;;;16.45;;
30970;SDS011;17651;52.262;10.498;2023-03-01T08:05:25;30.42;;;15.80;;
30970;SDS011;17651;52.262;10.498;2023-03-01T08:07:36;26.83;;;14.38;;
30970;SDS011;17651;52.262;10.498;2023-03-01T08:09:47;29.77;;;17.10;;
30970;SDS011;17651;52.262;10.498;2023-03-01T08:11:58;28.00;;;16.23;;
30970;SDS011;17651;52.262;10.498;2023-03-01T08:14:09;31.23;;;16.60;;
30970;SDS011;17651;52.262;10.498;2023-03-01T08:16:21;39.08;;;19.35;;
30970;SDS011;17651;52.262;10.498;2023-03-01T08:18:32;32.60;;;16.77;;
30970;SDS011;17651;52.262;10.498;2023-03-01T08:20:43;28.85;;;17.88;;
30970;SDS011;17651;52.262;10.498;2023-03-01T08:22:54;31.42;;;18.80;;
30970;SDS011;17651;52.262;10.498;2023-03-01T08:25:05;35.33;;;17.67;;
30970;SDS011;17651;52.262;10.498;2023-03-01T08:27:16;31.73;;;17.88;;
30970;SDS011;17651;52.262;10.498;2023-03-01T08:29:27;30.88;;;16.65;;
30970;SDS011;17651;52.262;10.498;2023-03-01T08:31:39;29.13;;;15.50;;
30970;SDS011;17651;52.262;10.498;2023-03-01T08:33:51;27.83;;;15.10;;
30970;SDS011;17651;52.262;10.498;2023-03-01T08:36:05;25.83;;;15.65;;
30970;SDS011;17651;52.262;10.498;2023-03-01T08:38:16;26.25;;;14.48;;
30970;SDS011;17651;52.262;10.498;2023-03-01T08:40:27;30.65;;;15.80;;
30970;SDS011;17651;52.262;10.498;2023-03-01T08:42:41;23.27;;;15.15;;
30970;SDS011;17651;52.262;10.498;2023-03-01T08:44:53;20.05;;;10.93;;
30970;SDS011;17651;52.262;10.498;2023-03-01T08:47:04;19.65;;;10.30;;
30970;SDS011;17651;52.262;10.498;2023-03-01T08:49:16;15.23;;;9.93;;
30970;SDS011;17651;52.262;10.498;2023-03-01T08:51:27;14.68;;;9.05;;
30970;SDS011;17651;52.262;10.498;2023-03-01T08:53:39;14.07;;;8.80;;
30970;SDS011;17651;52.262;10.498;2023-03-01T08:55:51;14.02;;;8.95;;
30970;SDS011;17651;52.262;10.498;2023-03-01T08:58:02;15.07;;;8.50;;
30970;SDS011;17651;52.262;10.498;2023-03-01T09:00:13;15.05;;;8.23;;
30970;SDS011;17651;52.262;10.498;2023-03-01T09:02:24;15.65;;;8.88;;
30970;SDS011;17651;52.262;10.498;2023-03-01T09:04:36;15.32;;;9.27;;
30970;SDS011;17651;52.262;10.498;2023-03-01T09:06:47;14.60;;;8.50;;
30970;SDS011;17651;52.262;10.498;2023-03-01T09:08:58;11.90;;;7.80;;
30970;SDS011;17651;52.262;10.498;2023-03-01T09:11:10;13.35;;;8.38;;
30970;SDS011;17651;52.262;10.498;2023-03-01T09:13:22;15.82;;;8.60;;
30970;SDS011;17651;52.262;10.498;2023-03-01T09:15:38;15.05;;;8.13;;
30970;SDS011;17651;52.262;10.498;2023-03-01T09:17:49;14.80;;;8.52;;
30970;SDS011;17651;52.262;10.498;2023-03-01T09:20:00;14.82;;;7.65;;
30970;SDS011;17651;52.262;10.498;2023-03-01T09:22:11;13.95;;;7.55;;
30970;SDS011;17651;52.262;10.498;2023-03-01T09:24:22;15.98;;;8.23;;
30970;SDS011;17651;52.262;10.498;2023-03-01T09:26:34;12.15;;;7.10;;
30970;SDS011;17651;52.262;10.498;2023-03-01T09:28:46;11.25;;;7.80;;
30970;SDS011;17651;52.262;10.498;2023-03-01T09:30:57;9.25;;;6.82;;
30970;SDS011;17651;52.262;10.498;2023-03-01T09:33:09;14.55;;;8.63;;
30970;SDS011;17651;52.262;10.498;2023-03-01T09:35:24;13.82;;;7.93;;
30970;SDS011;17651;52.262;10.498;2023-03-01T09:37:36;11.43;;;7.75;;
30970;SDS011;17651;52.262;10.498;2023-03-01T09:39:47;11.32;;;7.13;;
30970;SDS011;17651;52.262;10.498;2023-03-01T09:41:59;15.30;;;6.95;;
30970;SDS011;17651;52.262;10.498;2023-03-01T09:44:24;10.05;;;7.18;;
30970;SDS011;17651;52.262;10.498;2023-03-01T09:46:40;13.18;;;7.18;;
30970;SDS011;17651;52.262;10.498;2023-03-01T09:48:56;14.95;;;7.70;;
30970;SDS011;17651;52.262;10.498;2023-03-01T09:51:08;11.48;;;6.88;;
30970;SDS011;17651;52.262;10.498;2023-03-01T09:53:25;9.95;;;6.35;;
30970;SDS011;17651;52.262;10.498;2023-03-01T09:55:41;14.73;;;7.60;;
30970;SDS011;17651;52.262;10.498;2023-03-01T09:57:55;10.77;;;6.70;;
30970;SDS011;17651;52.262;10.498;2023-03-01T10:00:12;11.18;;;5.30;;
30970;SDS011;17651;52.262;10.498;2023-03-01T10:02:27;11.73;;;7.07;;
30970;SDS011;17651;52.262;10.498;2023-03-01T10:04:44;14.93;;;7.95;;
30970;SDS011;17651;52.262;10.498;2023-03-01T10:11:38;13.50;;;6.57;;
30970;SDS011;17651;52.262;10.498;2023-03-01T10:16:06;11.00;;;6.55;;
30970;SDS011;17651;52.262;10.498;2023-03-01T10:18:27;14.45;;;7.38;;
30970;SDS011;17651;52.262;10.498;2023-03-01T10:20:51;16.88;;;8.25;;
30970;SDS011;17651;52.262;10.498;2023-03-01T10:23:03;11.70;;;6.85;;
30970;SDS011;17651;52.262;10.498;2023-03-01T10:25:15;9.88;;;5.75;;
30970;SDS011;17651;52.262;10.498;2023-03-01T10:27:29;10.10;;;5.75;;
30970;SDS011;17651;52.262;10.498;2023-03-01T10:29:50;9.15;;;5.95;;
30970;SDS011;17651;52.262;10.498;2023-03-01T10:32:04;12.98;;;7.20;;
30970;SDS011;17651;52.262;10.498;2023-03-01T10:34:29;13.48;;;6.72;;
30970;SDS011;17651;52.262;10.498;2023-03-01T10:36:41;11.23;;;6.22;;
30970;SDS011;17651;52.262;10.498;2023-03-01T10:38:53;10.20;;;6.60;;
30970;SDS011;17651;52.262;10.498;2023-03-01T10:41:06;14.52;;;7.72;;
30970;SDS011;17651;52.262;10.498;2023-03-01T10:43:17;22.48;;;11.32;;
30970;SDS011;17651;52.262;10.498;2023-03-01T10:45:36;12.40;;;7.50;;
30970;SDS011;17651;52.262;10.498;2023-03-01T10:47:47;8.68;;;5.50;;
30970;SDS011;17651;52.262;10.498;2023-03-01T10:50:21;8.13;;;5.55;;
30970;SDS011;17651;52.262;10.498;2023-03-01T10:52:36;8.75;;;5.35;;
30970;SDS011;17651;52.262;10.498;2023-03-01T10:54:55;9.75;;;5.35;;
30970;SDS011;17651;52.262;10.498;2023-03-01T10:57:10;8.65;;;4.95;;
30970;SDS011;17651;52.262;10.498;2023-03-01T10:59:36;9.73;;;5.15;;
30970;SDS011;17651;52.262;10.498;2023-03-01T11:01:49;23.60;;;11.73;;
30970;SDS011;17651;52.262;10.498;2023-03-01T11:04:12;14.57;;;8.10;;
30970;SDS011;17651;52.262;10.498;2023-03-01T11:06:24;11.48;;;5.60;;
30970;SDS011;17651;52.262;10.498;2023-03-01T11:08:37;7.80;;;4.57;;
30970;SDS011;17651;52.262;10.498;2023-03-01T11:10:48;8.20;;;5.28;;
30970;SDS011;17651;52.262;10.498;2023-03-01T11:13:15;11.70;;;5.07;;
30970;SDS011;17651;52.262;10.498;2023-03-01T11:15:27;8.77;;;5.03;;
30970;SDS011;17651;52.262;10.498;2023-03-01T11:17:39;9.77;;;5.20;;
30970;SDS011;17651;52.262;10.498;2023-03-01T11:20:15;8.07;;;5.07;;
30970;SDS011;17651;52.262;10.498;2023-03-01T11:22:29;115.95;;;52.60;;
30970;SDS011;17651;52.262;10.498;2023-03-01T11:24:48;15.75;;;9.38;;
30970;SDS011;17651;52.262;10.498;2023-03-01T11:27:01;8.65;;;4.97;;
30970;SDS011;17651;52.262;10.498;2023-03-01T11:32:01;7.90;;;4.82;;
30970;SDS011;17651;52.262;10.498;2023-03-01T11:34:16;10.68;;;5.30;;
30970;SDS011;17651;52.262;10.498;2023-03-01T11:38:46;10.05;;;4.47;;
30970;SDS011;17651;52.262;10.498;2023-03-01T11:43:22;9.35;;;5.00;;
30970;SDS011;17651;52.262;10.498;2023-03-01T11:48:07;9.13;;;4.50;;
30970;SDS011;17651;52.262;10.498;2023-03-01T11:50:57;7.60;;;4.65;;
30970;SDS011;17651;52.262;10.498;2023-03-01T11:53:21;7.78;;;5.13;;
30970;SDS011;17651;52.262;10.498;2023-03-01T11:58:23;7.97;;;4.63;;
30970;SDS011;17651;52.262;10.498;2023-03-01T12:03:27;9.70;;;5.60;;
30970;SDS011;17651;52.262;10.498;2023-03-01T12:08:11;8.63;;;4.82;;
30970;SDS011;17651;52.262;10.498;2023-03-01T12:12:48;7.65;;;5.05;;
30970;SDS011;17651;52.262;10.498;2023-03-01T12:22:25;8.00;;;4.72;;
30970;SDS011;17651;52.262;10.498;2023-03-01T12:29:30;8.07;;;5.22;;
30970;SDS011;17651;52.262;10.498;2023-03-01T12:34:16;6.53;;;4.22;;
30970;SDS011;17651;52.262;10.498;2023-03-01T12:45:34;4.80;;;3.22;;
30970;SDS011;17651;52.262;10.498;2023-03-01T12:47:58;7.25;;;4.57;;
30970;SDS011;17651;52.262;10.498;2023-03-01T12:54:39;6.68;;;4.20;;
30970;SDS011;17651;52.262;10.498;2023-03-01T12:56:50;16.40;;;8.40;;
30970;SDS011;17651;52.262;10.498;2023-03-01T13:01:40;11.15;;;7.10;;
30970;SDS011;17651;52.262;10.498;2023-03-01T13:08:39;6.70;;;4.20;;
30970;SDS011;17651;52.262;10.498;2023-03-01T13:10:54;8.57;;;4.40;;
30970;SDS011;17651;52.262;10.498;2023-03-01T13:13:11;6.60;;;4.40;;
30970;SDS011;17651;52.262;10.498;2023-03-01T13:17:40;8.20;;;4.63;;
30970;SDS011;17651;52.262;10.498;2023-03-01T13:19:56;5.78;;;4.50;;
30970;SDS011;17651;52.262;10.498;2023-03-01T13:22:28;8.55;;;4.57;;
30970;SDS011;17651;52.262;10.498;2023-03-01T13:24:40;6.13;;;4.63;;
30970;SDS011;17651;52.262;10.498;2023-03-01T13:29:26;13.52;;;5.13;;
30970;SDS011;17651;52.262;10.498;2023-03-01T13:36:03;12.60;;;4.80;;
30970;SDS011;17651;52.262;10.498;2023-03-01T13:42:57;10.73;;;6.47;;
30970;SDS011;17651;52.262;10.498;2023-03-01T13:47:42;6.80;;;4.47;;
30970;SDS011;17651;52.262;10.498;2023-03-01T13:50:00;6.78;;;4.10;;
30970;SDS011;17651;52.262;10.498;2023-03-01T13:52:23;6.95;;;4.57;;
30970;SDS011;17651;52.262;10.498;2023-03-01T13:54:38;8.82;;;4.63;;
30970;SDS011;17651;52.262;10.498;2023-03-01T13:56:49;7.18;;;4.00;;
30970;SDS011;17651;52.262;10.498;2023-03-01T13:59:19;7.95;;;4.43;;
30970;SDS011;17651;52.262;10.498;2023-03-01T14:01:34;6.03;;;3.78;;
30970;SDS011;17651;52.262;10.498;2023-03-01T14:03:45;5.75;;;4.15;;
30970;SDS011;17651;52.262;10.498;2023-03-01T14:05:58;7.43;;;4.22;;
30970;SDS011;17651;52.262;10.498;2023-03-01T14:08:20;11.75;;;5.20;;
30970;SDS011;17651;52.262;10.498;2023-03-01T14:10:44;10.15;;;6.68;;
30970;SDS011;17651;52.262;10.498;2023-03-01T14:13:08;12.45;;;7.13;;
30970;SDS011;17651;52.262;10.498;2023-03-01T14:15:45;9.48;;;5.53;;
30970;SDS011;17651;52.262;10.498;2023-03-01T14:18:04;11.20;;;6.47;;
30970;SDS011;17651;52.262;10.498;2023-03-01T14:20:19;6.47;;;4.25;;
30970;SDS011;17651;52.262;10.498;2023-03-01T14:22:32;6.72;;;4.68;;